sensor_id;sensor_type;location;lat;lon;timestamp;pressure;altitude;pressure_sealevel;temperature;humidity
8653;BME280;4364;52.426;9.424;2023-10-19T00:01:16;99487.16;;;6.88;100.00
8653;BME280;4364;52.426;9.424;2023-10-19T00:03:44;99474.47;;;6.89;100.00
8653;BME280;4364;52.426;9.424;2023-10-19T00:06:11;99475.31;;;6.84;100.00
8653;BME280;4364;52.426;9.424;2023-10-19T00:08:38;99473.59;;;6.93;100.00
8653;BME280;4364;52.426;9.424;2023-10-19T00:11:08;99466.59;;;6.92;100.00
8653;BME280;4364;52.426;9.424;2023-10-19T00:13:36;99467.44;;;6.88;100.00
8653;BME280;4364;52.426;9.424;2023-10-19T00:16:05;99464.22;;;6.85;100.00
8653;BME280;4364;52.426;9.424;2023-10-19T00:18:43;99455.13;;;6.71;100.00
8653;BME280;4364;52.426;9.424;2023-10-19T00:21:10;99461.03;;;6.78;100.00
8653;BME280;4364;52.426;9.424;2023-10-19T00:23:56;99460.41;;;6.86;100.00
8653;BME280;4364;52.426;9.424;2023-10-19T00:26:25;99454.75;;;6.83;100.00
8653;BME280;4364;52.426;9.424;2023-10-19T00:28:56;99453.44;;;6.80;100.00
8653;BME280;4364;52.426;9.424;2023-10-19T00:31:24;99442.34;;;6.82;100.00
8653;BME280;4364;52.426;9.424;2023-10-19T00:33:52;99446.47;;;6.74;100.00
8653;BME280;4364;52.426;9.424;2023-10-19T00:36:21;99445.91;;;6.77;100.00
8653;BME280;4364;52.426;9.424;2023-10-19T00:38:49;99440.25;;;6.74;100.00
8653;BME280;4364;52.426;9.424;2023-10-19T00:41:17;99434.34;;;6.72;100.00
8653;BME280;4364;52.426;9.424;2023-10-19T00:43:54;99432.13;;;6.79;100.00
8653;BME280;4364;52.426;9.424;2023-10-19T00:46:33;99420.50;;;6.78;100.00
8653;BME280;4364;52.426;9.424;2023-10-19T00:49:10;99424.56;;;6.76;100.00
8653;BME280;4364;52.426;9.424;2023-10-19T00:51:41;99427.78;;;6.78;100.00
8653;BME280;4364;52.426;9.424;2023-10-19T00:54:21;99428.06;;;6.76;100.00
8653;BME280;4364;52.426;9.424;2023-10-19T00:57:00;99425.59;;;6.85;100.00
8653;BME280;4364;52.426;9.424;2023-10-19T00:59:40;99414.28;;;6.78;100.00
8653;BME280;4364;52.426;9.424;2023-10-19T01:02:15;99409.72;;;6.73;100.00
8653;BME280;4364;52.426;9.424;2023-10-19T01:04:49;99403.47;;;6.78;100.00
8653;BME280;4364;52.426;9.424;2023-10-19T01:07:28;99399.78;;;6.68;100.00
8653;BME280;4364;52.426;9.424;2023-10-19T01:09:58;99381.16;;;6.67;100.00
8653;BME280;4364;52.426;9.424;2023-10-19T01:12:27;99378.13;;;6.74;100.00
8653;BME280;4364;52.426;9.424;2023-10-19T01:17:36;99367.38;;;6.68;100.00
8653;BME280;4364;52.426;9.424;2023-10-19T01:20:12;99360.16;;;6.59;100.00
8653;BME280;4364;52.426;9.424;2023-10-19T01:22:50;99359.59;;;6.62;100.00
8653;BME280;4364;52.426;9.424;2023-10-19T01:25:20;99347.94;;;6.61;100.00
8653;BME280;4364;52.426;9.424;2023-10-19T01:28:10;99345.25;;;6.61;100.00
8653;BME280;4364;52.426;9.424;2023-10-19T01:30:39;99351.47;;;6.62;100.00
8653;BME280;4364;52.426;9.424;2023-10-19T01:33:06;99340.47;;;6.53;100.00
8653;BME280;4364;52.426;9.424;2023-10-19T01:35:40;99335.28;;;6.62;100.00
8653;BME280;4364;52.426;9.424;2023-10-19T01:38:27;99327.72;;;6.59;100.00
8653;BME280;4364;52.426;9.424;2023-10-19T01:40:58;99321.50;;;6.63;100.00
8653;BME280;4364;52.426;9.424;2023-10-19T01:43:27;99325.53;;;6.61;100.00
8653;BME280;4364;52.426;9.424;2023-10-19T01:45:58;99314.78;;;6.56;100.00
8653;BME280;4364;52.426;9.424;2023-10-19T01:48:31;99314.22;;;6.59;100.00
8653;BME280;4364;52.426;9.424;2023-10-19T01:51:05;99312.59;;;6.58;100.00
8653;BME280;4364;52.426;9.424;2023-10-19T01:53:35;99311.06;;;6.52;100.00
8653;BME280;4364;52.426;9.424;2023-10-19T01:56:03;99297.78;;;6.55;100.00
8653;BME280;4364;52.426;9.424;2023-10-19T01:58:31;99296.44;;;6.53;100.00
8653;BME280;4364;52.426;9.424;2023-10-19T02:01:03;99291.56;;;6.55;100.00
8653;BME280;4364;52.426;9.424;2023-10-19T02:03:47;99298.34;;;6.52;100.00
8653;BME280;4364;52.426;9.424;2023-10-19T02:06:20;99292.94;;;6.52;100.00
8653;BME280;4364;52.426;9.424;2023-10-19T02:08:55;99301.84;;;6.53;100.00
8653;BME280;4364;52.426;9.424;2023-10-19T02:11:27;99296.50;;;6.47;100.00
8653;BME280;4364;52.426;9.424;2023-10-19T02:13:56;99291.31;;;6.51;100.00
8653;BME280;4364;52.426;9.424;2023-10-19T02:16:31;99295.41;;;6.48;100.00
8653;BME280;4364;52.426;9.424;2023-10-19T02:18:59;99287.28;;;6.54;100.00
8653;BME280;4364;52.426;9.424;2023-10-19T02:21:27;99275.13;;;6.51;100.00
8653;BME280;4364;52.426;9.424;2023-10-19T02:23:57;99269.22;;;6.49;100.00
8653;BME280;4364;52.426;9.424;2023-10-19T02:26:24;99274.28;;;6.56;100.00
8653;BME280;4364;52.426;9.424;2023-10-19T02:28:53;99273.53;;;6.50;100.00
8653;BME280;4364;52.426;9.424;2023-10-19T02:31:20;99253.19;;;6.58;100.00
8653;BME280;4364;52.426;9.424;2023-10-19T02:33:50;99254.34;;;6.52;100.00
8653;BME280;4364;52.426;9.424;2023-10-19T02:36:27;99254.53;;;6.60;100.00
8653;BME280;4364;52.426;9.424;2023-10-19T02:38:58;99254.81;;;6.59;100.00
8653;BME280;4364;52.426;9.424;2023-10-19T02:41:29;99260.78;;;6.56;100.00
8653;BME280;4364;52.426;9.424;2023-10-19T02:43:56;99258.25;;;6.64;100.00
8653;BME280;4364;52.426;9.424;2023-10-19T02:46:47;99251.81;;;6.60;100.00
8653;BME280;4364;52.426;9.424;2023-10-19T02:49:15;99250.31;;;6.49;100.00
8653;BME280;4364;52.426;9.424;2023-10-19T02:51:47;99248.59;;;6.58;100.00
8653;BME280;4364;52.426;9.424;2023-10-19T02:54:19;99245.31;;;6.61;100.00
8653;BME280;4364;52.426;9.424;2023-10-19T02:56:53;99242.91;;;6.60;100.00
8653;BME280;4364;52.426;9.424;2023-10-19T02:59:22;99244.50;;;6.61;100.00
8653;BME280;4364;52.426;9.424;2023-10-19T03:01:54;99239.72;;;6.53;100.00
8653;BME280;4364;52.426;9.424;2023-10-19T03:04:28;99238.66;;;6.54;100.00
8653;BME280;4364;52.426;9.424;2023-10-19T03:06:55;99230.22;;;6.60;100.00
8653;BME280;4364;52.426;9.424;2023-10-19T03:09:23;99214.41;;;6.48;100.00
8653;BME280;4364;52.426;9.424;2023-10-19T03:11:56;99211.59;;;6.59;100.00
8653;BME280;4364;52.426;9.424;2023-10-19T03:14:27;99219.69;;;6.59;100.00
8653;BME280;4364;52.426;9.424;2023-10-19T03:16:53;99218.00;;;6.63;100.00
8653;BME280;4364;52.426;9.424;2023-10-19T03:19:23;99216.44;;;6.62;100.00
8653;BME280;4364;52.426;9.424;2023-10-19T03:21:52;99214.00;;;6.60;100.00
8653;BME280;4364;52.426;9.424;2023-10-19T03:24:19;99208.94;;;6.54;100.00
8653;BME280;4364;52.426;9.424;2023-10-19T03:27:05;99212.72;;;6.53;100.00
8653;BME280;4364;52.426;9.424;2023-10-19T03:29:52;99204.13;;;6.51;100.00
8653;BME280;4364;52.426;9.424;2023-10-19T03:32:22;99204.91;;;6.51;100.00
8653;BME280;4364;52.426;9.424;2023-10-19T03:34:57;99191.41;;;6.51;100.00
8653;BME280;4364;52.426;9.424;2023-10-19T03:37:27;99180.94;;;6.44;100.00
8653;BME280;4364;52.426;9.424;2023-10-19T03:39:57;99187.06;;;6.55;100.00
8653;BME280;4364;52.426;9.424;2023-10-19T03:42:25;99186.56;;;6.48;100.00
8653;BME280;4364;52.426;9.424;2023-10-19T03:44:53;99193.66;;;6.44;100.00
8653;BME280;4364;52.426;9.424;2023-10-19T03:47:23;99184.41;;;6.50;100.00
8653;BME280;4364;52.426;9.424;2023-10-19T03:50:02;99184.16;;;6.46;100.00
8653;BME280;4364;52.426;9.424;2023-10-19T03:52:41;99180.88;;;6.49;100.00
8653;BME280;4364;52.426;9.424;2023-10-19T03:55:07;99169.22;;;6.54;100.00
8653;BME280;4364;52.426;9.424;2023-10-19T03:57:49;99171.44;;;6.52;100.00
8653;BME280;4364;52.426;9.424;2023-10-19T04:00:21;99165.22;;;6.52;100.00
8653;BME280;4364;52.426;9.424;2023-10-19T04:02:52;99160.06;;;6.55;100.00
8653;BME280;4364;52.426;9.424;2023-10-19T04:05:25;99162.19;;;6.58;100.00
8653;BME280;4364;52.426;9.424;2023-10-19T04:07:52;99156.00;;;6.53;100.00
8653;BME280;4364;52.426;9.424;2023-10-19T04:10:24;99156.34;;;6.46;100.00
8653;BME280;4364;52.426;9.424;2023-10-19T04:13:05;99155.72;;;6.54;100.00
8653;BME280;4364;52.426;9.424;2023-10-19T04:15:39;99148.41;;;6.55;100.00
8653;BME280;4364;52.426;9.424;2023-10-19T04:18:07;99154.16;;;6.48;100.00
8653;BME280;4364;52.426;9.424;2023-10-19T04:20:40;99152.28;;;6.48;100.00
8653;BME280;4364;52.426;9.424;2023-10-19T04:23:22;99144.13;;;6.54;100.00
8653;BME280;4364;52.426;9.424;2023-10-19T04:25:48;99150.44;;;6.44;100.00
8653;BME280;4364;52.426;9.424;2023-10-19T04:28:15;99147.63;;;6.54;100.00
8653;BME280;4364;52.426;9.424;2023-10-19T04:30:42;99139.19;;;6.61;100.00
8653;BME280;4364;52.426;9.424;2023-10-19T04:33:08;99145.91;;;6.63;100.00
8653;BME280;4364;52.426;9.424;2023-10-19T04:35:36;99149.53;;;6.54;100.00
8653;BME280;4364;52.426;9.424;2023-10-19T04:38:04;99142.72;;;6.56;100.00
8653;BME280;4364;52.426;9.424;2023-10-19T04:40:33;99140.50;;;6.63;100.00
8653;BME280;4364;52.426;9.424;2023-10-19T04:43:02;99142.09;;;6.64;100.00
8653;BME280;4364;52.426;9.424;2023-10-19T04:45:32;99135.41;;;6.62;100.00
8653;BME280;4364;52.426;9.424;2023-10-19T04:47:58;99135.63;;;6.65;100.00
8653;BME280;4364;52.426;9.424;2023-10-19T04:50:25;99133.50;;;6.62;100.00
8653;BME280;4364;52.426;9.424;2023-10-19T04:52:52;99126.53;;;6.56;100.00
8653;BME280;4364;52.426;9.424;2023-10-19T04:55:18;99126.53;;;6.56;100.00
8653;BME280;4364;52.426;9.424;2023-10-19T04:57:50;99124.41;;;6.53;100.00
8653;BME280;4364;52.426;9.424;2023-10-19T05:00:17;99122.59;;;6.48;100.00
8653;BME280;4364;52.426;9.424;2023-10-19T05:02:46;99112.75;;;6.58;100.00
8653;BME280;4364;52.426;9.424;2023-10-19T05:05:13;99117.00;;;6.64;100.00
8653;BME280;4364;52.426;9.424;2023-10-19T05:07:43;99114.13;;;6.55;100.00
8653;BME280;4364;52.426;9.424;2023-10-19T05:10:10;99110.16;;;6.47;100.00
8653;BME280;4364;52.426;9.424;2023-10-19T05:12:37;99118.50;;;6.51;100.00
8653;BME280;4364;52.426;9.424;2023-10-19T05:15:04;99108.38;;;6.62;100.00
8653;BME280;4364;52.426;9.424;2023-10-19T05:17:32;99111.94;;;6.57;100.00
8653;BME280;4364;52.426;9.424;2023-10-19T05:19:59;99109.75;;;6.59;100.00
8653;BME280;4364;52.426;9.424;2023-10-19T05:22:25;99115.09;;;6.64;100.00
8653;BME280;4364;52.426;9.424;2023-10-19T05:24:55;99107.28;;;6.63;100.00
8653;BME280;4364;52.426;9.424;2023-10-19T05:27:22;99088.31;;;6.68;100.00
8653;BME280;4364;52.426;9.424;2023-10-19T05:29:48;99109.47;;;6.61;100.00
8653;BME280;4364;52.426;9.424;2023-10-19T05:32:15;99110.19;;;6.66;100.00
8653;BME280;4364;52.426;9.424;2023-10-19T05:34:41;99107.69;;;6.75;100.00
8653;BME280;4364;52.426;9.424;2023-10-19T05:37:08;99109.41;;;6.66;100.00
8653;BME280;4364;52.426;9.424;2023-10-19T05:39:35;99104.69;;;6.77;100.00
8653;BME280;4364;52.426;9.424;2023-10-19T05:42:03;99105.03;;;6.70;100.00
8653;BME280;4364;52.426;9.424;2023-10-19T05:44:31;99097.50;;;6.67;100.00
8653;BME280;4364;52.426;9.424;2023-10-19T05:46:58;99100.66;;;6.74;100.00
8653;BME280;4364;52.426;9.424;2023-10-19T05:49:26;99102.09;;;6.66;100.00
8653;BME280;4364;52.426;9.424;2023-10-19T05:51:55;99109.41;;;6.66;100.00
8653;BME280;4364;52.426;9.424;2023-10-19T05:54:22;99111.81;;;6.67;100.00
8653;BME280;4364;52.426;9.424;2023-10-19T05:56:51;99115.84;;;6.70;100.00
8653;BME280;4364;52.426;9.424;2023-10-19T05:59:18;99118.06;;;6.63;100.00
8653;BME280;4364;52.426;9.424;2023-10-19T06:01:45;99124.06;;;6.60;100.00
8653;BME280;4364;52.426;9.424;2023-10-19T06:04:15;99123.66;;;6.72;100.00
8653;BME280;4364;52.426;9.424;2023-10-19T06:06:47;99121.06;;;6.61;100.00
8653;BME280;4364;52.426;9.424;2023-10-19T06:09:15;99120.78;;;6.63;100.00
8653;BME280;4364;52.426;9.424;2023-10-19T06:11:42;99125.84;;;6.70;100.00
8653;BME280;4364;52.426;9.424;2023-10-19T06:14:09;99124.25;;;6.68;100.00
8653;BME280;4364;52.426;9.424;2023-10-19T06:16:36;99123.34;;;6.73;100.00
8653;BME280;4364;52.426;9.424;2023-10-19T06:19:03;99126.59;;;6.75;100.00
8653;BME280;4364;52.426;9.424;2023-10-19T06:21:31;99136.81;;;6.78;100.00
8653;BME280;4364;52.426;9.424;2023-10-19T06:23:59;99123.06;;;6.75;100.00
8653;BME280;4364;52.426;9.424;2023-10-19T06:26:27;99120.66;;;6.73;100.00
8653;BME280;4364;52.426;9.424;2023-10-19T06:28:54;99122.56;;;6.73;100.00
8653;BME280;4364;52.426;9.424;2023-10-19T06:31:28;99131.22;;;6.70;100.00
8653;BME280;4364;52.426;9.424;2023-10-19T06:33:56;99125.75;;;6.75;100.00
8653;BME280;4364;52.426;9.424;2023-10-19T06:36:23;99125.03;;;6.88;100.00
8653;BME280;4364;52.426;9.424;2023-10-19T06:38:50;99117.84;;;6.83;100.00
8653;BME280;4364;52.426;9.424;2023-10-19T06:41:17;99123.06;;;6.75;100.00
8653;BME280;4364;52.426;9.424;2023-10-19T06:43:44;99114.03;;;6.84;100.00
8653;BME280;4364;52.426;9.424;2023-10-19T06:46:12;99109.63;;;6.70;100.00
8653;BME280;4364;52.426;9.424;2023-10-19T06:48:39;99108.47;;;6.76;100.00
8653;BME280;4364;52.426;9.424;2023-10-19T06:51:07;99110.88;;;6.77;100.00
8653;BME280;4364;52.426;9.424;2023-10-19T06:53:34;99113.06;;;6.75;100.00
8653;BME280;4364;52.426;9.424;2023-10-19T06:56:05;99115.72;;;6.80;100.00
8653;BME280;4364;52.426;9.424;2023-10-19T06:58:33;99115.13;;;6.83;100.00
8653;BME280;4364;52.426;9.424;2023-10-19T07:01:01;99114.84;;;6.85;100.00
8653;BME280;4364;52.426;9.424;2023-10-19T07:03:35;99111.25;;;6.90;100.00
8653;BME280;4364;52.426;9.424;2023-10-19T07:06:03;99110.59;;;6.79;100.00
8653;BME280;4364;52.426;9.424;2023-10-19T07:08:35;99109.47;;;6.80;100.00
8653;BME280;4364;52.426;9.424;2023-10-19T07:11:02;99112.88;;;6.91;100.00
8653;BME280;4364;52.426;9.424;2023-10-19T07:13:29;99111.91;;;6.81;100.00
8653;BME280;4364;52.426;9.424;2023-10-19T07:15:59;99120.75;;;6.87;100.00
8653;BME280;4364;52.426;9.424;2023-10-19T07:18:29;99120.97;;;6.91;100.00
8653;BME280;4364;52.426;9.424;2023-10-19T07:20:56;99112.44;;;6.83;100.00
8653;BME280;4364;52.426;9.424;2023-10-19T07:23:30;99114.88;;;6.80;100.00
8653;BME280;4364;52.426;9.424;2023-10-19T07:25:57;99119.06;;;6.91;100.00
8653;BME280;4364;52.426;9.424;2023-10-19T07:28:27;99115.34;;;6.87;100.00
8653;BME280;4364;52.426;9.424;2023-10-19T07:30:54;99117.00;;;6.83;100.00
8653;BME280;4364;52.426;9.424;2023-10-19T07:33:22;99112.06;;;6.90;100.00
8653;BME280;4364;52.426;9.424;2023-10-19T07:35:50;99111.91;;;6.81;100.00
8653;BME280;4364;52.426;9.424;2023-10-19T07:38:22;99123.03;;;6.99;100.00
8653;BME280;4364;52.426;9.424;2023-10-19T07:40:49;99118.78;;;6.93;100.00
8653;BME280;4364;52.426;9.424;2023-10-19T07:43:20;99119.22;;;7.00;100.00
8653;BME280;4364;52.426;9.424;2023-10-19T07:45:47;99121.13;;;6.99;100.00
8653;BME280;4364;52.426;9.424;2023-10-19T07:48:14;99112.44;;;7.02;100.00
8653;BME280;4364;52.426;9.424;2023-10-19T07:50:41;99119.06;;;6.91;100.00
8653;BME280;4364;52.426;9.424;2023-10-19T07:53:08;99119.00;;;6.96;100.00
8653;BME280;4364;52.426;9.424;2023-10-19T07:55:36;99121.47;;;6.93;100.00
8653;BME280;4364;52.426;9.424;2023-10-19T07:58:05;99112.72;;;7.01;100.00
8653;BME280;4364;52.426;9.424;2023-10-19T08:00:35;99113.81;;;7.00;100.00
8653;BME280;4364;52.426;9.424;2023-10-19T08:03:03;99124.25;;;7.07;100.00
8653;BME280;4364;52.426;9.424;2023-10-19T08:05:31;99112.44;;;7.02;100.00
8653;BME280;4364;52.426;9.424;2023-10-19T08:07:58;99113.16;;;7.08;100.00
8653;BME280;4364;52.426;9.424;2023-10-19T08:10:28;99119.09;;;7.10;100.00
8653;BME280;4364;52.426;9.424;2023-10-19T08:12:56;99112.72;;;7.01;100.00
8653;BME280;4364;52.426;9.424;2023-10-19T08:15:22;99116.69;;;7.09;100.00
8653;BME280;4364;52.426;9.424;2023-10-19T08:17:50;99127.56;;;7.03;100.00
8653;BME280;4364;52.426;9.424;2023-10-19T08:20:17;99123.59;;;7.15;100.00
8653;BME280;4364;52.426;9.424;2023-10-19T08:22:51;99129.28;;;7.13;100.00
8653;BME280;4364;52.426;9.424;2023-10-19T08:25:19;99119.69;;;7.07;100.00
8653;BME280;4364;52.426;9.424;2023-10-19T08:27:47;99121.72;;;7.15;100.00
8653;BME280;4364;52.426;9.424;2023-10-19T08:30:21;99117.31;;;7.19;100.00
8653;BME280;4364;52.426;9.424;2023-10-19T08:32:53;99119.53;;;7.17;100.00
8653;BME280;4364;52.426;9.424;2023-10-19T08:35:21;99118.88;;;7.26;100.00
8653;BME280;4364;52.426;9.424;2023-10-19T08:37:52;99118.88;;;7.26;100.00
8653;BME280;4364;52.426;9.424;2023-10-19T08:40:20;99120.91;;;7.15;100.00
8653;BME280;4364;52.426;9.424;2023-10-19T08:42:48;99119.66;;;7.26;100.00
8653;BME280;4364;52.426;9.424;2023-10-19T08:45:15;99127.47;;;7.28;100.00
8653;BME280;4364;52.426;9.424;2023-10-19T08:47:59;99135.16;;;7.39;100.00
8653;BME280;4364;52.426;9.424;2023-10-19T08:50:29;99133.31;;;7.35;100.00
8653;BME280;4364;52.426;9.424;2023-10-19T08:52:58;99133.09;;;7.31;100.00
8653;BME280;4364;52.426;9.424;2023-10-19T08:55:25;99124.69;;;7.33;100.00
8653;BME280;4364;52.426;9.424;2023-10-19T08:58:13;99126.19;;;7.25;100.00
8653;BME280;4364;52.426;9.424;2023-10-19T09:00:49;99127.03;;;7.39;100.00
8653;BME280;4364;52.426;9.424;2023-10-19T09:03:20;99132.53;;;7.34;100.00
8653;BME280;4364;52.426;9.424;2023-10-19T09:05:49;99116.72;;;7.41;100.00
8653;BME280;4364;52.426;9.424;2023-10-19T09:08:18;99116.09;;;7.31;100.00
8653;BME280;4364;52.426;9.424;2023-10-19T09:10:48;99124.41;;;7.34;100.00
8653;BME280;4364;52.426;9.424;2023-10-19T09:13:15;99117.75;;;7.46;100.00
8653;BME280;4364;52.426;9.424;2023-10-19T09:15:46;99114.25;;;7.45;100.00
8653;BME280;4364;52.426;9.424;2023-10-19T09:20:47;99110.94;;;7.48;100.00
8653;BME280;4364;52.426;9.424;2023-10-19T09:23:24;99107.75;;;7.60;100.00
8653;BME280;4364;52.426;9.424;2023-10-19T09:25:53;99109.78;;;7.68;100.00
8653;BME280;4364;52.426;9.424;2023-10-19T09:28:20;99103.78;;;7.71;100.00
8653;BME280;4364;52.426;9.424;2023-10-19T09:30:48;99107.09;;;7.68;100.00
8653;BME280;4364;52.426;9.424;2023-10-19T09:33:16;99105.81;;;7.79;100.00
8653;BME280;4364;52.426;9.424;2023-10-19T09:35:46;99104.16;;;7.84;100.00
8653;BME280;4364;52.426;9.424;2023-10-19T09:38:15;99098.50;;;7.80;100.00
8653;BME280;4364;52.426;9.424;2023-10-19T09:40:42;99087.91;;;7.97;100.00
8653;BME280;4364;52.426;9.424;2023-10-19T09:43:42;99097.34;;;8.00;100.00
8653;BME280;4364;52.426;9.424;2023-10-19T09:46:08;99081.63;;;8.16;100.00
8653;BME280;4364;52.426;9.424;2023-10-19T09:48:41;99083.53;;;8.15;100.00
8653;BME280;4364;52.426;9.424;2023-10-19T09:51:09;99084.72;;;8.09;100.00
8653;BME280;4364;52.426;9.424;2023-10-19T09:53:45;99094.75;;;8.09;100.00
8653;BME280;4364;52.426;9.424;2023-10-19T09:56:35;99094.38;;;8.15;100.00
8653;BME280;4364;52.426;9.424;2023-10-19T09:59:05;99092.66;;;8.20;100.00
8653;BME280;4364;52.426;9.424;2023-10-19T10:04:33;99095.56;;;8.23;100.00
8653;BME280;4364;52.426;9.424;2023-10-19T10:07:00;99099.28;;;8.27;100.00
8653;BME280;4364;52.426;9.424;2023-10-19T10:09:28;99093.38;;;8.25;100.00
8653;BME280;4364;52.426;9.424;2023-10-19T10:11:56;99090.03;;;8.28;100.00
8653;BME280;4364;52.426;9.424;2023-10-19T10:14:24;99085.75;;;8.27;100.00
8653;BME280;4364;52.426;9.424;2023-10-19T10:17:04;99091.94;;;8.28;100.00
8653;BME280;4364;52.426;9.424;2023-10-19T10:19:33;99089.53;;;8.26;100.00
8653;BME280;4364;52.426;9.424;2023-10-19T10:22:08;99089.75;;;8.30;100.00
8653;BME280;4364;52.426;9.424;2023-10-19T10:24:42;99088.44;;;8.27;100.00
8653;BME280;4364;52.426;9.424;2023-10-19T10:27:09;99087.94;;;8.11;100.00
8653;BME280;4364;52.426;9.424;2023-10-19T10:29:36;99089.16;;;8.19;100.00
8653;BME280;4364;52.426;9.424;2023-10-19T10:32:04;99081.22;;;8.23;100.00
8653;BME280;4364;52.426;9.424;2023-10-19T10:37:06;99074.88;;;8.13;100.00
8653;BME280;4364;52.426;9.424;2023-10-19T10:39:38;99078.81;;;8.21;100.00
8653;BME280;4364;52.426;9.424;2023-10-19T10:42:09;99077.53;;;8.19;100.00
8653;BME280;4364;52.426;9.424;2023-10-19T10:44:45;99076.41;;;8.20;100.00
8653;BME280;4364;52.426;9.424;2023-10-19T10:47:20;99078.41;;;8.28;100.00
8653;BME280;4364;52.426;9.424;2023-10-19T10:50:00;99081.13;;;8.28;100.00
8653;BME280;4364;52.426;9.424;2023-10-19T10:55:09;99069.50;;;8.27;100.00
8653;BME280;4364;52.426;9.424;2023-10-19T10:57:40;99061.47;;;8.36;100.00
8653;BME280;4364;52.426;9.424;2023-10-19T11:00:12;99071.59;;;8.30;100.00
8653;BME280;4364;52.426;9.424;2023-10-19T11:02:47;99070.19;;;8.33;100.00
8653;BME280;4364;52.426;9.424;2023-10-19T11:05:16;99056.75;;;8.28;100.00
8653;BME280;4364;52.426;9.424;2023-10-19T11:08:05;99062.84;;;8.33;100.00
8653;BME280;4364;52.426;9.424;2023-10-19T11:10:33;99042.50;;;8.36;100.00
8653;BME280;4364;52.426;9.424;2023-10-19T11:13:05;99042.22;;;8.24;100.00
8653;BME280;4364;52.426;9.424;2023-10-19T11:15:39;99052.53;;;8.22;100.00
8653;BME280;4364;52.426;9.424;2023-10-19T11:18:06;99044.81;;;8.29;100.00
8653;BME280;4364;52.426;9.424;2023-10-19T11:20:36;99044.22;;;8.32;100.00
8653;BME280;4364;52.426;9.424;2023-10-19T11:23:03;99053.22;;;8.41;100.00
8653;BME280;4364;52.426;9.424;2023-10-19T11:25:30;99052.97;;;8.43;100.00
8653;BME280;4364;52.426;9.424;2023-10-19T11:28:00;99051.13;;;8.38;100.00
8653;BME280;4364;52.426;9.424;2023-10-19T11:30:30;99050.81;;;8.40;100.00
8653;BME280;4364;52.426;9.424;2023-10-19T11:33:01;99050.31;;;8.38;100.00
8653;BME280;4364;52.426;9.424;2023-10-19T11:35:31;99063.50;;;8.44;100.00
8653;BME280;4364;52.426;9.424;2023-10-19T11:38:00;99051.47;;;8.50;100.00
8653;BME280;4364;52.426;9.424;2023-10-19T11:40:27;99053.16;;;8.46;100.00
8653;BME280;4364;52.426;9.424;2023-10-19T11:42:55;99037.28;;;8.53;100.00
8653;BME280;4364;52.426;9.424;2023-10-19T11:45:27;99037.09;;;8.50;100.00
8653;BME280;4364;52.426;9.424;2023-10-19T11:47:55;99043.03;;;8.52;100.00
8653;BME280;4364;52.426;9.424;2023-10-19T11:50:23;99034.50;;;8.45;100.00
8653;BME280;4364;52.426;9.424;2023-10-19T11:52:50;99040.88;;;8.63;100.00
8653;BME280;4364;52.426;9.424;2023-10-19T11:55:19;99043.59;;;8.63;100.00
8653;BME280;4364;52.426;9.424;2023-10-19T11:57:47;99044.69;;;8.62;100.00
8653;BME280;4364;52.426;9.424;2023-10-19T12:00:14;99040.41;;;8.61;100.00
8653;BME280;4364;52.426;9.424;2023-10-19T12:02:48;99038.38;;;8.66;100.00
8653;BME280;4364;52.426;9.424;2023-10-19T12:05:15;99041.66;;;8.77;100.00
8653;BME280;4364;52.426;9.424;2023-10-19T12:07:42;99046.88;;;8.74;100.00
8653;BME280;4364;52.426;9.424;2023-10-19T12:10:11;99053.31;;;8.78;100.00
8653;BME280;4364;52.426;9.424;2023-10-19T12:12:41;99055.72;;;8.79;100.00
8653;BME280;4364;52.426;9.424;2023-10-19T12:15:24;99055.59;;;8.84;100.00
8653;BME280;4364;52.426;9.424;2023-10-19T12:17:52;99053.19;;;8.83;100.00
8653;BME280;4364;52.426;9.424;2023-10-19T12:20:20;99041.44;;;8.87;100.00
8653;BME280;4364;52.426;9.424;2023-10-19T12:22:50;99040.53;;;8.92;100.00
8653;BME280;4364;52.426;9.424;2023-10-19T12:25:20;99039.34;;;8.84;100.00
8653;BME280;4364;52.426;9.424;2023-10-19T12:28:02;99040.44;;;8.83;100.00
8653;BME280;4364;52.426;9.424;2023-10-19T12:30:30;99039.34;;;8.84;100.00
8653;BME280;4364;52.426;9.424;2023-10-19T12:33:04;99034.88;;;8.88;100.00
8653;BME280;4364;52.426;9.424;2023-10-19T12:35:34;99032.03;;;9.07;100.00
8653;BME280;4364;52.426;9.424;2023-10-19T12:38:23;99030.78;;;8.91;100.00
8653;BME280;4364;52.426;9.424;2023-10-19T12:40:50;99037.28;;;9.04;100.00
8653;BME280;4364;52.426;9.424;2023-10-19T12:43:20;99037.28;;;9.04;100.00
8653;BME280;4364;52.426;9.424;2023-10-19T12:45:50;99034.25;;;9.05;100.00
8653;BME280;4364;52.426;9.424;2023-10-19T12:48:20;99037.94;;;9.09;100.00
8653;BME280;4364;52.426;9.424;2023-10-19T12:50:47;99031.97;;;8.99;100.00
8653;BME280;4364;52.426;9.424;2023-10-19T12:53:14;99032.34;;;9.06;100.00
8653;BME280;4364;52.426;9.424;2023-10-19T12:55:40;99032.81;;;8.85;100.00
8653;BME280;4364;52.426;9.424;2023-10-19T12:58:10;99030.00;;;8.90;100.00
8653;BME280;4364;52.426;9.424;2023-10-19T13:00:38;99027.28;;;8.90;100.00
8653;BME280;4364;52.426;9.424;2023-10-19T13:03:08;99026.63;;;8.94;100.00
8653;BME280;4364;52.426;9.424;2023-10-19T13:05:35;99024.03;;;9.02;100.00
8653;BME280;4364;52.426;9.424;2023-10-19T13:08:07;99036.75;;;9.02;100.00
8653;BME280;4364;52.426;9.424;2023-10-19T13:10:35;99039.69;;;9.05;100.00
8653;BME280;4364;52.426;9.424;2023-10-19T13:13:05;99037.06;;;9.00;100.00
8653;BME280;4364;52.426;9.424;2023-10-19T13:15:33;99031.88;;;8.90;100.00
8653;BME280;4364;52.426;9.424;2023-10-19T13:18:02;99028.44;;;8.98;100.00
8653;BME280;4364;52.426;9.424;2023-10-19T13:20:29;99021.03;;;8.90;100.00
8653;BME280;4364;52.426;9.424;2023-10-19T13:23:06;99029.47;;;8.88;100.00
8653;BME280;4364;52.426;9.424;2023-10-19T13:25:33;99025.84;;;8.93;100.00
8653;BME280;4364;52.426;9.424;2023-10-19T13:28:09;99025.06;;;8.93;100.00
8653;BME280;4364;52.426;9.424;2023-10-19T13:30:43;99018.13;;;8.86;100.00
8653;BME280;4364;52.426;9.424;2023-10-19T13:33:10;99010.28;;;8.99;100.00
8653;BME280;4364;52.426;9.424;2023-10-19T13:35:38;99018.13;;;8.86;100.00
8653;BME280;4364;52.426;9.424;2023-10-19T13:38:06;99020.47;;;8.79;100.00
8653;BME280;4364;52.426;9.424;2023-10-19T13:40:35;99010.63;;;8.83;100.00
8653;BME280;4364;52.426;9.424;2023-10-19T13:43:02;99005.59;;;8.90;100.00
8653;BME280;4364;52.426;9.424;2023-10-19T13:45:34;99014.34;;;8.87;100.00
8653;BME280;4364;52.426;9.424;2023-10-19T13:48:04;99016.66;;;8.80;100.00
8653;BME280;4364;52.426;9.424;2023-10-19T13:50:32;99025.66;;;8.89;100.00
8653;BME280;4364;52.426;9.424;2023-10-19T13:53:00;99017.84;;;8.88;100.00